createdAt,value
2023-03-13T06:03:05.166Z,425.00
2023-03-13T06:04:06.467Z,423.00
2023-03-13T06:05:06.372Z,423.00
2023-03-13T06:06:06.226Z,423.00
2023-03-13T06:07:05.229Z,423.00
2023-03-13T06:08:06.296Z,427.00
2023-03-13T06:09:06.362Z,431.00
2023-03-13T06:10:05.329Z,431.00
2023-03-13T06:11:05.353Z,429.00
2023-03-13T06:12:06.325Z,431.00
2023-03-13T06:13:18.942Z,428.00
2023-03-13T06:14:06.341Z,428.00
2023-03-13T06:15:06.334Z,428.00
2023-03-13T06:16:06.466Z,428.00
2023-03-13T06:17:06.321Z,429.00
2023-03-13T06:18:06.298Z,427.00
2023-03-13T06:19:06.315Z,426.00
2023-03-13T06:20:06.294Z,424.00
2023-03-13T06:21:06.286Z,425.00
2023-03-13T06:22:06.279Z,425.00
2023-03-13T06:23:05.291Z,424.00
2023-03-13T06:24:06.265Z,423.00
2023-03-13T06:25:05.260Z,424.00
2023-03-13T06:26:06.234Z,424.00
2023-03-13T06:27:06.240Z,424.00
2023-03-13T06:28:06.225Z,422.00
2023-03-13T06:29:05.233Z,423.00
2023-03-13T06:30:06.210Z,424.00
2023-03-13T06:31:06.317Z,423.00
2023-03-13T06:32:06.560Z,421.00
2023-03-13T06:33:06.388Z,422.00
2023-03-13T06:34:06.178Z,422.00
2023-03-13T06:35:06.289Z,421.00
2023-03-13T06:36:05.245Z,422.00
2023-03-13T06:37:06.196Z,423.00
2023-03-13T06:38:06.170Z,424.00
2023-03-13T06:39:06.155Z,424.00
2023-03-13T06:40:06.156Z,424.00
2023-03-13T06:41:06.150Z,424.00
2023-03-13T06:42:06.149Z,423.00
2023-03-13T06:43:06.117Z,421.00
2023-03-13T06:44:05.106Z,423.00
2023-03-13T06:45:06.132Z,423.00
2023-03-13T06:46:06.094Z,421.00
2023-03-13T06:47:06.151Z,423.00
2023-03-13T06:48:06.159Z,421.00
2023-03-13T06:49:06.189Z,422.00
2023-03-13T06:50:06.229Z,419.00
2023-03-13T06:51:06.396Z,417.00
2023-03-13T06:52:05.323Z,420.00
2023-03-13T06:53:06.357Z,421.00
2023-03-13T06:54:06.404Z,424.00
2023-03-13T06:55:06.427Z,425.00
2023-03-13T06:56:06.522Z,425.00
2023-03-13T06:57:05.540Z,423.00
2023-03-13T06:58:06.567Z,424.00
2023-03-13T06:59:06.628Z,433.00
2023-03-13T07:00:06.714Z,450.00
2023-03-13T07:01:05.864Z,457.00
2023-03-13T07:02:05.984Z,456.00
2023-03-13T07:03:06.832Z,469.00
2023-03-13T07:04:06.939Z,484.00
2023-03-13T07:05:06.935Z,497.00
2023-03-13T07:06:06.969Z,516.00
2023-03-13T07:07:07.058Z,527.00
2023-03-13T07:08:07.051Z,591.00
2023-03-13T07:09:07.070Z,607.00
2023-03-13T07:10:07.122Z,646.00
2023-03-13T07:11:07.143Z,655.00
2023-03-13T07:12:07.202Z,707.00
2023-03-13T07:13:07.195Z,703.00
2023-03-13T07:14:16.601Z,707.00
2023-03-13T07:15:07.218Z,716.00
2023-03-13T07:16:07.362Z,768.00
2023-03-13T07:17:07.323Z,781.00
2023-03-13T07:18:07.199Z,781.00
2023-03-13T07:19:07.263Z,772.00
2023-03-13T07:20:07.217Z,767.00
2023-03-13T07:21:07.203Z,757.00
2023-03-13T07:22:07.166Z,754.00
2023-03-13T07:23:07.193Z,750.00
2023-03-13T07:24:06.156Z,755.00
2023-03-13T07:25:06.160Z,802.00
2023-03-13T07:26:07.145Z,816.00
2023-03-13T07:27:08.256Z,817.00
2023-03-13T07:28:07.155Z,827.00
2023-03-13T07:29:07.125Z,834.00
2023-03-13T07:30:06.117Z,857.00
2023-03-13T07:31:06.113Z,893.00
2023-03-13T07:32:07.154Z,915.00
2023-03-13T07:33:07.133Z,915.00
2023-03-13T07:34:07.078Z,919.00
2023-03-13T07:35:07.078Z,913.00
2023-03-13T07:36:07.110Z,915.00
2023-03-13T07:37:07.058Z,918.00
2023-03-13T07:38:06.077Z,912.00
2023-03-13T07:39:07.082Z,905.00
2023-03-13T07:41:07.041Z,941.00
2023-03-13T07:42:07.025Z,996.00
2023-03-13T07:43:06.021Z,1022.00
2023-03-13T07:44:06.011Z,1042.00
2023-03-13T07:45:07.364Z,1067.00
2023-03-13T07:46:07.152Z,1074.00
2023-03-13T07:47:07.020Z,1071.00
2023-03-13T07:48:07.012Z,1064.00
2023-03-13T07:49:06.841Z,1068.00
2023-03-13T07:50:07.026Z,1076.00
2023-03-13T07:51:06.997Z,1078.00
2023-03-13T07:52:06.955Z,1077.00
2023-03-13T07:53:07.260Z,1078.00
2023-03-13T07:54:06.528Z,1081.00
2023-03-13T07:55:05.960Z,1072.00
2023-03-13T07:56:06.927Z,1066.00
2023-03-13T07:57:05.946Z,1067.00
2023-03-13T07:58:06.932Z,1075.00
2023-03-13T07:59:07.106Z,1081.00
2023-03-13T08:00:06.896Z,1086.00
2023-03-13T08:01:06.898Z,1096.00
2023-03-13T08:02:05.991Z,1150.00
2023-03-13T08:03:07.573Z,1195.00
2023-03-13T08:04:05.950Z,1204.00
2023-03-13T08:05:05.901Z,1226.00
2023-03-13T08:06:07.006Z,1230.00
2023-03-13T08:07:06.919Z,1237.00
2023-03-13T08:08:06.952Z,1244.00
2023-03-13T08:09:06.663Z,1244.00
2023-03-13T08:10:07.422Z,1239.00
2023-03-13T08:11:07.660Z,1234.00
2023-03-13T08:12:07.758Z,1230.00
2023-03-13T08:13:07.244Z,1227.00
2023-03-13T08:14:06.922Z,1231.00
2023-03-13T08:15:07.370Z,1235.00
2023-03-13T08:16:07.866Z,1243.00
2023-03-13T08:17:07.595Z,1283.00
2023-03-13T08:18:07.466Z,1299.00
2023-03-13T08:19:07.486Z,1291.00
2023-03-13T08:20:07.534Z,1297.00
2023-03-13T08:21:07.580Z,1301.00
2023-03-13T08:22:07.650Z,1308.00
2023-03-13T08:23:07.714Z,1313.00
2023-03-13T08:24:07.777Z,1338.00
2023-03-13T08:25:07.837Z,1351.00
2023-03-13T08:26:07.897Z,1350.00
2023-03-13T08:27:07.999Z,1352.00
2023-03-13T08:28:08.005Z,1358.00
2023-03-13T08:29:08.088Z,1360.00
2023-03-13T08:30:08.132Z,1372.00
2023-03-13T08:31:07.209Z,1383.00
2023-03-13T08:32:08.251Z,1397.00
2023-03-13T08:33:07.882Z,1415.00
2023-03-13T08:34:08.355Z,1430.00
2023-03-13T08:35:08.429Z,1436.00
2023-03-13T08:36:08.442Z,1439.00
2023-03-13T08:37:08.552Z,1451.00
2023-03-13T08:38:08.554Z,1458.00
2023-03-13T08:39:08.615Z,1459.00
2023-03-13T08:40:08.676Z,1464.00
2023-03-13T08:41:08.733Z,1511.00
2023-03-13T08:42:08.805Z,1539.00
2023-03-13T08:43:08.842Z,1550.00
2023-03-13T08:44:08.881Z,1559.00
2023-03-13T08:45:08.895Z,1567.00
2023-03-13T08:46:08.076Z,1572.00
2023-03-13T08:47:09.032Z,1578.00
2023-03-13T08:48:09.513Z,1581.00
2023-03-13T08:49:09.144Z,1528.00
2023-03-13T08:50:09.195Z,1490.00
2023-03-13T08:51:09.245Z,1443.00
2023-03-13T08:52:09.347Z,1441.00
2023-03-13T08:53:09.522Z,1441.00
2023-03-13T08:54:08.421Z,1440.00
2023-03-13T08:55:09.481Z,1443.00
2023-03-13T08:56:08.562Z,1448.00
2023-03-13T08:57:08.612Z,1446.00
2023-03-13T08:58:09.689Z,1436.00
2023-03-13T08:59:09.861Z,1427.00
2023-03-13T09:00:09.799Z,1423.00
2023-03-13T09:01:08.867Z,1417.00
2023-03-13T09:02:09.923Z,1418.00
2023-03-13T09:03:09.979Z,1416.00
2023-03-13T09:04:10.103Z,1414.00
2023-03-13T09:05:09.079Z,1415.00
2023-03-13T09:06:10.131Z,1414.00
2023-03-13T09:07:10.199Z,1414.00
2023-03-13T09:08:10.272Z,1412.00
2023-03-13T09:09:10.317Z,1416.00
2023-03-13T09:10:10.362Z,1421.00
2023-03-13T09:11:10.444Z,1420.00
2023-03-13T09:12:24.623Z,1417.00
2023-03-13T09:13:10.499Z,1416.00
2023-03-13T09:14:10.481Z,1415.00
2023-03-13T09:15:10.493Z,1412.00
2023-03-13T09:16:10.516Z,1411.00
2023-03-13T09:17:10.453Z,1411.00
2023-03-13T09:18:10.512Z,1409.00
2023-03-13T09:19:10.435Z,1408.00
2023-03-13T09:20:10.437Z,1406.00
2023-03-13T09:21:10.422Z,1400.00
2023-03-13T09:22:10.463Z,1400.00
2023-03-13T09:23:10.428Z,1398.00
2023-03-13T09:24:10.390Z,1395.00
2023-03-13T09:25:10.380Z,1393.00
2023-03-13T09:26:10.364Z,1392.00
2023-03-13T09:27:09.358Z,1392.00
2023-03-13T09:28:10.364Z,1388.00
2023-03-13T09:29:09.378Z,1388.00
2023-03-13T09:30:10.360Z,1385.00
2023-03-13T09:31:10.488Z,1384.00
2023-03-13T09:32:10.326Z,1380.00
2023-03-13T09:33:10.345Z,1384.00
2023-03-13T09:34:10.318Z,1381.00
2023-03-13T09:35:10.300Z,1383.00
2023-03-13T09:36:10.358Z,1381.00
2023-03-13T09:37:10.289Z,1376.00
2023-03-13T09:38:09.280Z,1375.00
2023-03-13T09:39:10.287Z,1378.00
2023-03-13T09:40:11.031Z,1379.00
2023-03-13T09:41:10.341Z,1377.00
2023-03-13T09:42:10.391Z,1378.00
2023-03-13T09:43:10.452Z,1381.00
2023-03-13T09:44:10.572Z,1390.00
2023-03-13T09:45:10.553Z,1463.00
2023-03-13T09:46:10.680Z,1472.00
2023-03-13T09:47:09.699Z,1484.00
2023-03-13T09:48:10.726Z,1491.00
2023-03-13T09:49:10.774Z,1501.00
2023-03-13T09:50:10.827Z,1514.00
2023-03-13T09:51:09.904Z,1529.00
2023-03-13T09:52:11.087Z,1554.00
2023-03-13T09:53:11.003Z,1560.00
2023-03-13T09:54:11.074Z,1563.00
2023-03-13T09:55:11.156Z,1565.00
2023-03-13T09:56:11.159Z,1579.00
2023-03-13T09:57:10.221Z,1586.00
2023-03-13T09:58:11.306Z,1593.00
2023-03-13T09:59:11.530Z,1608.00
2023-03-13T10:00:10.386Z,1617.00
2023-03-13T10:01:11.489Z,1617.00
2023-03-13T10:02:11.509Z,1616.00
2023-03-13T10:03:10.570Z,1620.00
2023-03-13T10:04:11.660Z,1622.00
2023-03-13T10:05:11.623Z,1621.00
2023-03-13T10:06:11.685Z,1617.00
2023-03-13T10:07:11.737Z,1612.00
2023-03-13T10:08:10.810Z,1606.00
2023-03-13T10:09:11.855Z,1608.00
2023-03-13T10:10:11.905Z,1604.00
2023-03-13T10:11:11.983Z,1601.00
2023-03-13T10:12:12.016Z,1601.00
2023-03-13T10:13:12.037Z,1596.00
2023-03-13T10:14:11.104Z,1592.00
2023-03-13T10:15:11.162Z,1585.00
2023-03-13T10:16:12.277Z,1588.00
2023-03-13T10:17:12.287Z,1588.00
2023-03-13T10:18:12.326Z,1586.00
2023-03-13T10:19:12.396Z,1585.00
2023-03-13T10:20:11.446Z,1585.00
2023-03-13T10:21:12.516Z,1584.00
2023-03-13T10:22:11.569Z,1586.00
2023-03-13T10:23:12.617Z,1587.00
2023-03-13T10:24:11.675Z,1585.00
2023-03-13T10:25:12.737Z,1583.00
2023-03-13T10:26:12.789Z,1579.00
2023-03-13T10:27:12.847Z,1581.00
2023-03-13T10:28:11.910Z,1589.00
2023-03-13T10:29:12.962Z,1586.00
2023-03-13T10:30:13.063Z,1584.00
2023-03-13T10:31:12.152Z,1588.00
2023-03-13T10:32:12.134Z,1594.00
2023-03-13T10:33:13.191Z,1598.00
2023-03-13T10:34:13.263Z,1610.00
2023-03-13T10:35:13.337Z,1606.00
2023-03-13T10:36:13.490Z,1607.00
2023-03-13T10:37:13.447Z,1599.00
2023-03-13T10:38:13.511Z,1593.00
2023-03-13T10:39:13.553Z,1589.00
2023-03-13T10:40:13.613Z,1580.00
2023-03-13T10:41:13.678Z,1575.00
2023-03-13T10:42:13.739Z,1575.00
2023-03-13T10:43:13.793Z,1571.00
2023-03-13T10:44:13.872Z,1562.00
2023-03-13T10:45:13.904Z,1550.00
2023-03-13T10:46:13.999Z,1539.00
2023-03-13T10:47:14.040Z,1533.00
2023-03-13T10:48:13.085Z,1534.00
2023-03-13T10:49:14.204Z,1511.00
2023-03-13T10:50:14.225Z,1496.00
2023-03-13T10:54:16.293Z,1454.00
2023-03-13T10:55:14.461Z,1452.00
2023-03-13T10:56:13.437Z,1447.00
2023-03-13T10:57:14.424Z,1442.00
2023-03-13T10:58:13.406Z,1439.00
2023-03-13T11:00:13.402Z,1440.00
2023-03-13T11:01:13.410Z,1439.00
2023-03-13T11:02:14.414Z,1435.00
2023-03-13T11:03:14.501Z,1436.00
2023-03-13T11:04:14.369Z,1447.00
2023-03-13T11:05:14.356Z,1454.00
2023-03-13T11:06:14.350Z,1459.00
2023-03-13T11:07:14.379Z,1456.00
2023-03-13T11:08:13.435Z,1451.00
2023-03-13T11:09:14.343Z,1448.00
2023-03-13T11:10:14.342Z,1448.00
2023-03-13T11:11:13.311Z,1456.00
2023-03-13T11:12:14.354Z,1462.00
2023-03-13T11:13:15.197Z,1460.00
2023-03-13T11:14:14.480Z,1460.00
2023-03-13T11:15:14.599Z,1459.00
2023-03-13T11:16:13.641Z,1465.00
2023-03-13T11:17:14.670Z,1466.00
2023-03-13T11:18:14.721Z,1464.00
2023-03-13T11:19:13.799Z,1457.00
2023-03-13T11:20:13.847Z,1458.00
2023-03-13T11:21:18.381Z,1458.00
2023-03-13T11:22:13.962Z,1455.00
2023-03-13T11:23:14.927Z,1456.00
2023-03-13T11:24:14.899Z,1457.00
2023-03-13T11:25:17.382Z,1455.00
2023-03-13T11:26:14.871Z,1455.00
2023-03-13T11:27:14.971Z,1454.00
2023-03-13T11:28:14.862Z,1455.00
2023-03-13T11:29:14.863Z,1457.00
2023-03-13T11:30:14.855Z,1454.00
2023-03-13T11:31:14.909Z,1458.00
2023-03-13T11:32:14.856Z,1456.00
2023-03-13T11:33:14.841Z,1471.00
2023-03-13T11:35:13.814Z,1478.00
2023-03-13T11:36:13.893Z,1525.00
2023-03-13T11:37:13.795Z,1538.00
2023-03-13T11:38:14.822Z,1546.00
2023-03-13T11:39:14.809Z,1554.00
2023-03-13T11:40:14.771Z,1567.00
2023-03-13T11:41:14.847Z,1623.00
2023-03-13T11:42:14.769Z,1644.00
2023-03-13T11:43:25.108Z,1661.00
2023-03-13T11:44:15.082Z,1669.00
2023-03-13T11:45:14.751Z,1680.00
2023-03-13T11:46:14.917Z,1687.00
2023-03-13T11:47:14.807Z,1698.00
2023-03-13T11:48:14.738Z,1696.00
2023-03-13T11:49:14.083Z,1695.00
2023-03-13T11:50:14.720Z,1694.00
2023-03-13T11:51:14.747Z,1694.00
2023-03-13T11:52:14.747Z,1697.00
2023-03-13T11:53:14.745Z,1701.00
2023-03-13T11:54:15.045Z,1705.00
2023-03-13T11:55:14.710Z,1707.00
2023-03-13T11:57:15.323Z,1706.00
2023-03-13T11:58:15.190Z,1707.00
2023-03-13T11:59:16.083Z,1699.00
2023-03-13T12:00:14.758Z,1675.00
2023-03-13T12:01:16.780Z,1658.00
2023-03-13T12:02:15.723Z,1648.00
2023-03-13T12:03:14.711Z,1647.00
2023-03-13T12:04:14.647Z,1652.00
2023-03-13T12:05:13.740Z,1656.00
2023-03-13T12:06:27.412Z,1660.00
2023-03-13T12:07:14.621Z,1660.00
2023-03-13T12:08:14.636Z,1671.00
2023-03-13T12:13:14.206Z,1649.00
2023-03-13T12:14:14.572Z,1641.00
2023-03-13T12:17:14.649Z,1561.00
2023-03-13T12:18:13.693Z,1554.00
2023-03-13T12:19:14.755Z,1543.00
2023-03-13T12:20:14.944Z,1535.00
2023-03-13T12:21:14.856Z,1522.00
2023-03-13T12:22:14.920Z,1514.00
2023-03-13T12:23:14.988Z,1516.00
2023-03-13T12:28:32.676Z,1509.00
2023-03-13T12:32:33.676Z,1422.00
2023-03-13T12:33:32.568Z,1416.00
2023-03-13T12:44:33.503Z,1374.00
2023-03-13T12:45:32.576Z,1376.00
2023-03-13T12:51:33.446Z,1375.00
2023-03-13T12:52:33.440Z,1376.00
2023-03-13T12:53:33.521Z,1370.00
2023-03-13T12:55:33.425Z,1383.00
2023-03-13T13:12:33.128Z,1413.00
2023-03-13T13:13:33.165Z,1419.00
2023-03-13T13:14:33.273Z,1420.00
2023-03-13T13:18:34.459Z,1378.00
2023-03-13T13:19:34.532Z,1378.00
2023-03-13T13:20:34.578Z,1361.00
2023-03-13T13:25:34.864Z,1317.00
2023-03-13T13:30:35.194Z,1253.00
2023-03-13T13:34:35.295Z,1180.00
2023-03-13T13:38:35.538Z,1349.00
2023-03-13T13:40:34.606Z,1370.00
2023-03-13T13:41:35.743Z,1378.00
2023-03-13T13:43:35.778Z,1396.00
2023-03-13T13:44:35.849Z,1414.00
2023-03-13T13:45:34.907Z,1442.00
2023-03-13T13:46:36.174Z,1468.00
2023-03-13T13:48:35.079Z,1490.00
2023-03-13T13:49:36.141Z,1498.00
2023-03-13T13:56:35.615Z,1559.00
2023-03-13T13:57:36.618Z,1540.00
2023-03-13T14:01:36.922Z,1584.00
2023-03-13T15:20:40.254Z,1134.00
2023-03-13T15:21:40.269Z,1119.00
2023-03-13T15:22:39.419Z,1107.00
2023-03-13T15:23:40.353Z,1096.00
2023-03-13T15:24:40.308Z,1092.00
2023-03-13T15:26:40.330Z,1079.00
2023-03-13T15:27:40.347Z,1069.00
2023-03-13T15:32:40.537Z,999.00
2023-03-13T15:33:40.477Z,988.00
2023-03-13T15:34:40.502Z,951.00
2023-03-13T15:36:40.537Z,849.00
